sensor_id;sensor_type;location;lat;lon;timestamp;P1;durP1;ratioP1;P2;durP2;ratioP2
50337;SDS011;46221;51.178;5.900;2023-05-07T00:00:38;3.28;;;1.75;;
50337;SDS011;46221;51.178;5.900;2023-05-07T00:03:05;3.80;;;1.88;;
50337;SDS011;46221;51.178;5.900;2023-05-07T00:05:31;2.97;;;1.50;;
50337;SDS011;46221;51.178;5.900;2023-05-07T00:07:58;2.72;;;1.67;;
50337;SDS011;46221;51.178;5.900;2023-05-07T00:10:25;3.72;;;1.55;;
50337;SDS011;46221;51.178;5.900;2023-05-07T00:12:51;3.03;;;1.70;;
50337;SDS011;46221;51.178;5.900;2023-05-07T00:15:18;4.32;;;2.13;;
50337;SDS011;46221;51.178;5.900;2023-05-07T00:17:45;2.95;;;1.75;;
50337;SDS011;46221;51.178;5.900;2023-05-07T00:20:11;2.60;;;1.42;;
50337;SDS011;46221;51.178;5.900;2023-05-07T00:22:38;4.13;;;1.73;;
50337;SDS011;46221;51.178;5.900;2023-05-07T00:25:04;2.65;;;1.73;;
50337;SDS011;46221;51.178;5.900;2023-05-07T00:27:31;3.25;;;1.60;;
50337;SDS011;46221;51.178;5.900;2023-05-07T00:29:58;2.55;;;1.60;;
50337;SDS011;46221;51.178;5.900;2023-05-07T00:32:24;2.92;;;1.70;;
50337;SDS011;46221;51.178;5.900;2023-05-07T00:34:50;2.78;;;1.40;;
50337;SDS011;46221;51.178;5.900;2023-05-07T00:37:17;3.60;;;1.70;;
50337;SDS011;46221;51.178;5.900;2023-05-07T00:39:43;2.70;;;1.75;;
50337;SDS011;46221;51.178;5.900;2023-05-07T00:42:10;2.97;;;1.67;;
50337;SDS011;46221;51.178;5.900;2023-05-07T00:44:36;3.75;;;1.77;;
50337;SDS011;46221;51.178;5.900;2023-05-07T00:47:03;3.53;;;1.83;;
50337;SDS011;46221;51.178;5.900;2023-05-07T00:49:35;2.90;;;1.50;;
50337;SDS011;46221;51.178;5.900;2023-05-07T00:52:03;3.75;;;1.77;;
50337;SDS011;46221;51.178;5.900;2023-05-07T00:54:31;3.00;;;1.73;;
50337;SDS011;46221;51.178;5.900;2023-05-07T00:56:58;3.58;;;2.03;;
50337;SDS011;46221;51.178;5.900;2023-05-07T00:59:24;3.00;;;1.60;;
50337;SDS011;46221;51.178;5.900;2023-05-07T01:01:51;3.95;;;1.73;;
50337;SDS011;46221;51.178;5.900;2023-05-07T01:04:18;3.47;;;1.90;;
50337;SDS011;46221;51.178;5.900;2023-05-07T01:06:45;3.20;;;1.73;;
50337;SDS011;46221;51.178;5.900;2023-05-07T01:09:12;3.05;;;1.70;;
50337;SDS011;46221;51.178;5.900;2023-05-07T01:11:38;3.92;;;1.45;;
50337;SDS011;46221;51.178;5.900;2023-05-07T01:14:05;2.60;;;1.35;;
50337;SDS011;46221;51.178;5.900;2023-05-07T01:16:33;3.38;;;1.75;;
50337;SDS011;46221;51.178;5.900;2023-05-07T01:19:00;3.13;;;1.60;;
50337;SDS011;46221;51.178;5.900;2023-05-07T01:21:26;3.25;;;1.60;;
50337;SDS011;46221;51.178;5.900;2023-05-07T01:23:56;3.42;;;1.50;;
50337;SDS011;46221;51.178;5.900;2023-05-07T01:26:23;3.13;;;1.63;;
50337;SDS011;46221;51.178;5.900;2023-05-07T01:28:49;5.43;;;1.92;;
50337;SDS011;46221;51.178;5.900;2023-05-07T01:31:16;2.50;;;1.60;;
50337;SDS011;46221;51.178;5.900;2023-05-07T01:33:43;3.00;;;1.60;;
50337;SDS011;46221;51.178;5.900;2023-05-07T01:36:10;3.15;;;1.67;;
50337;SDS011;46221;51.178;5.900;2023-05-07T01:38:37;3.13;;;1.73;;
50337;SDS011;46221;51.178;5.900;2023-05-07T01:41:04;3.08;;;1.75;;
50337;SDS011;46221;51.178;5.900;2023-05-07T01:43:31;2.70;;;1.45;;
50337;SDS011;46221;51.178;5.900;2023-05-07T01:45:57;2.50;;;1.63;;
50337;SDS011;46221;51.178;5.900;2023-05-07T01:48:25;3.13;;;1.67;;
50337;SDS011;46221;51.178;5.900;2023-05-07T01:50:51;3.45;;;1.55;;
50337;SDS011;46221;51.178;5.900;2023-05-07T01:53:18;3.47;;;1.77;;
50337;SDS011;46221;51.178;5.900;2023-05-07T01:55:44;3.08;;;1.75;;
50337;SDS011;46221;51.178;5.900;2023-05-07T01:58:11;3.38;;;1.70;;
50337;SDS011;46221;51.178;5.900;2023-05-07T02:00:37;3.03;;;1.88;;
50337;SDS011;46221;51.178;5.900;2023-05-07T02:03:04;3.47;;;1.70;;
50337;SDS011;46221;51.178;5.900;2023-05-07T02:05:30;3.85;;;1.80;;
50337;SDS011;46221;51.178;5.900;2023-05-07T02:07:57;3.47;;;1.70;;
50337;SDS011;46221;51.178;5.900;2023-05-07T02:10:23;4.15;;;2.17;;
50337;SDS011;46221;51.178;5.900;2023-05-07T02:12:50;4.10;;;2.00;;
50337;SDS011;46221;51.178;5.900;2023-05-07T02:15:16;3.40;;;1.88;;
50337;SDS011;46221;51.178;5.900;2023-05-07T02:17:59;3.05;;;1.70;;
50337;SDS011;46221;51.178;5.900;2023-05-07T02:20:26;4.00;;;1.75;;
50337;SDS011;46221;51.178;5.900;2023-05-07T02:22:53;2.75;;;1.58;;
50337;SDS011;46221;51.178;5.900;2023-05-07T02:25:19;4.20;;;1.60;;
50337;SDS011;46221;51.178;5.900;2023-05-07T02:27:46;3.67;;;1.85;;
50337;SDS011;46221;51.178;5.900;2023-05-07T02:30:15;4.88;;;2.28;;
50337;SDS011;46221;51.178;5.900;2023-05-07T02:32:41;3.33;;;1.88;;
50337;SDS011;46221;51.178;5.900;2023-05-07T02:35:08;3.20;;;2.00;;
50337;SDS011;46221;51.178;5.900;2023-05-07T02:37:34;4.07;;;1.95;;
50337;SDS011;46221;51.178;5.900;2023-05-07T02:40:01;3.88;;;2.10;;
50337;SDS011;46221;51.178;5.900;2023-05-07T02:42:29;4.22;;;2.40;;
50337;SDS011;46221;51.178;5.900;2023-05-07T02:44:56;3.83;;;1.95;;
50337;SDS011;46221;51.178;5.900;2023-05-07T02:47:22;4.40;;;2.08;;
50337;SDS011;46221;51.178;5.900;2023-05-07T02:49:49;3.33;;;2.00;;
50337;SDS011;46221;51.178;5.900;2023-05-07T02:52:15;3.67;;;2.22;;
50337;SDS011;46221;51.178;5.900;2023-05-07T02:54:41;3.80;;;2.10;;
50337;SDS011;46221;51.178;5.900;2023-05-07T02:57:08;2.67;;;1.60;;
50337;SDS011;46221;51.178;5.900;2023-05-07T02:59:34;3.05;;;2.00;;
50337;SDS011;46221;51.178;5.900;2023-05-07T03:02:01;3.47;;;1.98;;
50337;SDS011;46221;51.178;5.900;2023-05-07T03:04:27;3.67;;;2.00;;
50337;SDS011;46221;51.178;5.900;2023-05-07T03:06:54;3.88;;;1.83;;
50337;SDS011;46221;51.178;5.900;2023-05-07T03:09:20;3.50;;;2.08;;
50337;SDS011;46221;51.178;5.900;2023-05-07T03:11:47;3.10;;;1.90;;
50337;SDS011;46221;51.178;5.900;2023-05-07T03:14:13;3.28;;;2.17;;
50337;SDS011;46221;51.178;5.900;2023-05-07T03:16:40;4.80;;;2.08;;
50337;SDS011;46221;51.178;5.900;2023-05-07T03:19:06;3.72;;;2.45;;
50337;SDS011;46221;51.178;5.900;2023-05-07T03:21:32;3.10;;;2.03;;
50337;SDS011;46221;51.178;5.900;2023-05-07T03:24:00;3.47;;;2.08;;
50337;SDS011;46221;51.178;5.900;2023-05-07T03:26:27;3.05;;;1.55;;
50337;SDS011;46221;51.178;5.900;2023-05-07T03:28:54;3.63;;;1.90;;
50337;SDS011;46221;51.178;5.900;2023-05-07T03:31:21;3.33;;;1.90;;
50337;SDS011;46221;51.178;5.900;2023-05-07T03:33:51;3.45;;;2.10;;
50337;SDS011;46221;51.178;5.900;2023-05-07T03:36:18;3.08;;;2.20;;
50337;SDS011;46221;51.178;5.900;2023-05-07T03:38:44;3.60;;;2.17;;
50337;SDS011;46221;51.178;5.900;2023-05-07T03:41:11;3.17;;;1.75;;
50337;SDS011;46221;51.178;5.900;2023-05-07T03:43:37;3.65;;;2.22;;
50337;SDS011;46221;51.178;5.900;2023-05-07T03:46:03;3.28;;;2.00;;
50337;SDS011;46221;51.178;5.900;2023-05-07T03:48:30;3.90;;;2.13;;
50337;SDS011;46221;51.178;5.900;2023-05-07T03:50:57;3.00;;;2.03;;
50337;SDS011;46221;51.178;5.900;2023-05-07T03:53:23;3.22;;;1.98;;
50337;SDS011;46221;51.178;5.900;2023-05-07T03:55:50;3.78;;;2.25;;
50337;SDS011;46221;51.178;5.900;2023-05-07T03:58:16;4.15;;;2.50;;
50337;SDS011;46221;51.178;5.900;2023-05-07T04:00:42;3.30;;;2.30;;
50337;SDS011;46221;51.178;5.900;2023-05-07T04:03:09;3.22;;;2.10;;
50337;SDS011;46221;51.178;5.900;2023-05-07T04:05:35;3.72;;;2.10;;
50337;SDS011;46221;51.178;5.900;2023-05-07T04:08:02;3.35;;;2.10;;
50337;SDS011;46221;51.178;5.900;2023-05-07T04:10:29;3.65;;;2.10;;
50337;SDS011;46221;51.178;5.900;2023-05-07T04:12:55;4.13;;;2.40;;
50337;SDS011;46221;51.178;5.900;2023-05-07T04:15:23;3.83;;;2.05;;
50337;SDS011;46221;51.178;5.900;2023-05-07T04:17:49;3.95;;;1.98;;
50337;SDS011;46221;51.178;5.900;2023-05-07T04:20:16;2.80;;;1.90;;
50337;SDS011;46221;51.178;5.900;2023-05-07T04:22:43;4.68;;;2.20;;
50337;SDS011;46221;51.178;5.900;2023-05-07T04:25:09;3.70;;;1.83;;
50337;SDS011;46221;51.178;5.900;2023-05-07T04:27:36;4.30;;;2.35;;
50337;SDS011;46221;51.178;5.900;2023-05-07T04:30:02;4.57;;;2.20;;
50337;SDS011;46221;51.178;5.900;2023-05-07T04:32:29;5.93;;;2.03;;
50337;SDS011;46221;51.178;5.900;2023-05-07T04:34:56;3.97;;;2.00;;
50337;SDS011;46221;51.178;5.900;2023-05-07T04:37:23;7.70;;;2.15;;
50337;SDS011;46221;51.178;5.900;2023-05-07T04:39:49;4.35;;;2.10;;
50337;SDS011;46221;51.178;5.900;2023-05-07T04:42:16;3.70;;;2.17;;
50337;SDS011;46221;51.178;5.900;2023-05-07T04:44:46;3.05;;;1.95;;
50337;SDS011;46221;51.178;5.900;2023-05-07T04:47:14;3.95;;;1.83;;
50337;SDS011;46221;51.178;5.900;2023-05-07T04:49:43;4.43;;;1.80;;
50337;SDS011;46221;51.178;5.900;2023-05-07T04:52:14;3.28;;;1.65;;
50337;SDS011;46221;51.178;5.900;2023-05-07T04:54:54;3.47;;;1.70;;
50337;SDS011;46221;51.178;5.900;2023-05-07T04:57:30;3.10;;;2.00;;
50337;SDS011;46221;51.178;5.900;2023-05-07T05:00:07;4.82;;;1.88;;
50337;SDS011;46221;51.178;5.900;2023-05-07T05:02:44;4.15;;;1.58;;
50337;SDS011;46221;51.178;5.900;2023-05-07T05:05:11;2.92;;;1.88;;
50337;SDS011;46221;51.178;5.900;2023-05-07T05:07:38;2.38;;;1.60;;
50337;SDS011;46221;51.178;5.900;2023-05-07T05:10:04;3.83;;;1.77;;
50337;SDS011;46221;51.178;5.900;2023-05-07T05:12:32;3.03;;;1.60;;
50337;SDS011;46221;51.178;5.900;2023-05-07T05:14:58;3.80;;;2.00;;
50337;SDS011;46221;51.178;5.900;2023-05-07T05:17:24;3.53;;;2.05;;
50337;SDS011;46221;51.178;5.900;2023-05-07T05:19:51;4.10;;;1.75;;
50337;SDS011;46221;51.178;5.900;2023-05-07T05:22:17;3.08;;;1.85;;
50337;SDS011;46221;51.178;5.900;2023-05-07T05:24:43;2.97;;;1.63;;
50337;SDS011;46221;51.178;5.900;2023-05-07T05:27:10;3.53;;;2.08;;
50337;SDS011;46221;51.178;5.900;2023-05-07T05:29:36;2.97;;;1.63;;
50337;SDS011;46221;51.178;5.900;2023-05-07T05:32:03;4.88;;;1.90;;
50337;SDS011;46221;51.178;5.900;2023-05-07T05:34:29;2.60;;;1.60;;
50337;SDS011;46221;51.178;5.900;2023-05-07T05:36:56;3.38;;;1.80;;
50337;SDS011;46221;51.178;5.900;2023-05-07T05:39:23;4.82;;;1.90;;
50337;SDS011;46221;51.178;5.900;2023-05-07T05:41:49;2.33;;;1.40;;
50337;SDS011;46221;51.178;5.900;2023-05-07T05:44:16;4.45;;;1.63;;
50337;SDS011;46221;51.178;5.900;2023-05-07T05:46:42;4.22;;;1.55;;
50337;SDS011;46221;51.178;5.900;2023-05-07T05:49:08;3.00;;;1.50;;
50337;SDS011;46221;51.178;5.900;2023-05-07T05:51:35;2.85;;;1.60;;
50337;SDS011;46221;51.178;5.900;2023-05-07T05:54:01;3.63;;;1.70;;
50337;SDS011;46221;51.178;5.900;2023-05-07T05:56:28;2.95;;;1.30;;
50337;SDS011;46221;51.178;5.900;2023-05-07T05:58:54;2.58;;;1.20;;
50337;SDS011;46221;51.178;5.900;2023-05-07T06:01:20;3.05;;;1.73;;
50337;SDS011;46221;51.178;5.900;2023-05-07T06:03:47;2.80;;;1.60;;
50337;SDS011;46221;51.178;5.900;2023-05-07T06:06:13;4.35;;;1.60;;
50337;SDS011;46221;51.178;5.900;2023-05-07T06:08:40;2.95;;;1.77;;
50337;SDS011;46221;51.178;5.900;2023-05-07T06:11:07;3.53;;;1.60;;
50337;SDS011;46221;51.178;5.900;2023-05-07T06:13:33;4.53;;;2.03;;
50337;SDS011;46221;51.178;5.900;2023-05-07T06:15:59;2.90;;;1.50;;
50337;SDS011;46221;51.178;5.900;2023-05-07T06:18:26;4.50;;;1.77;;
50337;SDS011;46221;51.178;5.900;2023-05-07T06:20:52;4.35;;;1.58;;
50337;SDS011;46221;51.178;5.900;2023-05-07T06:23:19;4.72;;;1.45;;
50337;SDS011;46221;51.178;5.900;2023-05-07T06:25:48;6.22;;;2.17;;
50337;SDS011;46221;51.178;5.900;2023-05-07T06:28:14;10.52;;;2.50;;
50337;SDS011;46221;51.178;5.900;2023-05-07T06:30:40;8.23;;;2.13;;
50337;SDS011;46221;51.178;5.900;2023-05-07T06:33:07;7.00;;;2.13;;
50337;SDS011;46221;51.178;5.900;2023-05-07T06:35:34;5.80;;;1.95;;
50337;SDS011;46221;51.178;5.900;2023-05-07T06:38:00;11.48;;;2.20;;
50337;SDS011;46221;51.178;5.900;2023-05-07T06:40:27;8.75;;;2.20;;
50337;SDS011;46221;51.178;5.900;2023-05-07T06:42:53;6.40;;;1.92;;
50337;SDS011;46221;51.178;5.900;2023-05-07T06:45:19;9.23;;;2.30;;
50337;SDS011;46221;51.178;5.900;2023-05-07T06:47:46;14.10;;;2.55;;
50337;SDS011;46221;51.178;5.900;2023-05-07T06:50:12;20.08;;;2.95;;
50337;SDS011;46221;51.178;5.900;2023-05-07T06:52:38;7.30;;;2.15;;
50337;SDS011;46221;51.178;5.900;2023-05-07T06:55:05;8.70;;;1.98;;
50337;SDS011;46221;51.178;5.900;2023-05-07T06:57:32;10.52;;;2.55;;
50337;SDS011;46221;51.178;5.900;2023-05-07T06:59:58;11.00;;;2.95;;
50337;SDS011;46221;51.178;5.900;2023-05-07T07:02:24;7.28;;;2.42;;
50337;SDS011;46221;51.178;5.900;2023-05-07T07:04:51;7.68;;;2.95;;
50337;SDS011;46221;51.178;5.900;2023-05-07T07:07:17;6.68;;;2.50;;
50337;SDS011;46221;51.178;5.900;2023-05-07T07:09:43;12.60;;;2.58;;
50337;SDS011;46221;51.178;5.900;2023-05-07T07:12:10;6.35;;;2.42;;
50337;SDS011;46221;51.178;5.900;2023-05-07T07:14:36;7.18;;;2.35;;
50337;SDS011;46221;51.178;5.900;2023-05-07T07:17:03;7.88;;;2.70;;
50337;SDS011;46221;51.178;5.900;2023-05-07T07:19:31;6.28;;;2.30;;
50337;SDS011;46221;51.178;5.900;2023-05-07T07:21:57;4.72;;;2.55;;
50337;SDS011;46221;51.178;5.900;2023-05-07T07:24:23;7.30;;;2.50;;
50337;SDS011;46221;51.178;5.900;2023-05-07T07:26:50;6.90;;;2.85;;
50337;SDS011;46221;51.178;5.900;2023-05-07T07:29:16;6.95;;;2.60;;
50337;SDS011;46221;51.178;5.900;2023-05-07T07:31:44;4.47;;;2.10;;
50337;SDS011;46221;51.178;5.900;2023-05-07T07:34:11;4.30;;;2.30;;
50337;SDS011;46221;51.178;5.900;2023-05-07T07:36:37;4.85;;;2.40;;
50337;SDS011;46221;51.178;5.900;2023-05-07T07:39:12;6.70;;;2.67;;
50337;SDS011;46221;51.178;5.900;2023-05-07T07:41:38;5.88;;;2.60;;
50337;SDS011;46221;51.178;5.900;2023-05-07T07:44:05;5.05;;;2.38;;
50337;SDS011;46221;51.178;5.900;2023-05-07T07:46:33;6.55;;;2.72;;
50337;SDS011;46221;51.178;5.900;2023-05-07T07:49:00;5.22;;;2.50;;
50337;SDS011;46221;51.178;5.900;2023-05-07T07:51:27;5.85;;;2.70;;
50337;SDS011;46221;51.178;5.900;2023-05-07T07:53:53;4.45;;;2.20;;
50337;SDS011;46221;51.178;5.900;2023-05-07T07:56:20;8.02;;;2.63;;
50337;SDS011;46221;51.178;5.900;2023-05-07T07:58:46;7.47;;;2.88;;
50337;SDS011;46221;51.178;5.900;2023-05-07T08:01:13;4.93;;;2.60;;
50337;SDS011;46221;51.178;5.900;2023-05-07T08:03:39;7.43;;;3.50;;
50337;SDS011;46221;51.178;5.900;2023-05-07T08:06:06;6.55;;;3.55;;
50337;SDS011;46221;51.178;5.900;2023-05-07T08:08:32;6.25;;;3.28;;
50337;SDS011;46221;51.178;5.900;2023-05-07T08:10:59;6.00;;;3.15;;
50337;SDS011;46221;51.178;5.900;2023-05-07T08:13:25;9.15;;;3.72;;
50337;SDS011;46221;51.178;5.900;2023-05-07T08:15:52;4.70;;;3.08;;
50337;SDS011;46221;51.178;5.900;2023-05-07T08:18:18;7.20;;;3.72;;
50337;SDS011;46221;51.178;5.900;2023-05-07T08:20:45;8.18;;;3.60;;
50337;SDS011;46221;51.178;5.900;2023-05-07T08:23:12;7.55;;;3.53;;
50337;SDS011;46221;51.178;5.900;2023-05-07T08:25:39;8.30;;;3.60;;
50337;SDS011;46221;51.178;5.900;2023-05-07T08:28:07;11.77;;;3.72;;
50337;SDS011;46221;51.178;5.900;2023-05-07T08:30:35;8.07;;;3.53;;
50337;SDS011;46221;51.178;5.900;2023-05-07T08:33:01;7.22;;;3.47;;
50337;SDS011;46221;51.178;5.900;2023-05-07T08:35:28;7.82;;;3.80;;
50337;SDS011;46221;51.178;5.900;2023-05-07T08:37:54;10.13;;;3.65;;
50337;SDS011;46221;51.178;5.900;2023-05-07T08:40:22;8.07;;;3.47;;
50337;SDS011;46221;51.178;5.900;2023-05-07T08:42:52;10.52;;;4.30;;
50337;SDS011;46221;51.178;5.900;2023-05-07T08:45:19;10.70;;;4.22;;
50337;SDS011;46221;51.178;5.900;2023-05-07T08:47:52;10.05;;;4.30;;
50337;SDS011;46221;51.178;5.900;2023-05-07T08:52:47;7.30;;;3.80;;
50337;SDS011;46221;51.178;5.900;2023-05-07T08:55:14;8.80;;;3.90;;
50337;SDS011;46221;51.178;5.900;2023-05-07T08:57:44;8.35;;;4.30;;
50337;SDS011;46221;51.178;5.900;2023-05-07T09:00:11;9.65;;;4.47;;
50337;SDS011;46221;51.178;5.900;2023-05-07T09:02:37;6.15;;;4.20;;
50337;SDS011;46221;51.178;5.900;2023-05-07T09:05:04;8.23;;;4.60;;
50337;SDS011;46221;51.178;5.900;2023-05-07T09:07:30;6.80;;;3.95;;
50337;SDS011;46221;51.178;5.900;2023-05-07T09:09:57;7.25;;;4.25;;
50337;SDS011;46221;51.178;5.900;2023-05-07T09:12:24;10.35;;;5.00;;
50337;SDS011;46221;51.178;5.900;2023-05-07T09:14:50;10.68;;;5.13;;
50337;SDS011;46221;51.178;5.900;2023-05-07T09:17:16;7.70;;;4.75;;
50337;SDS011;46221;51.178;5.900;2023-05-07T09:19:44;8.63;;;4.80;;
50337;SDS011;46221;51.178;5.900;2023-05-07T09:22:10;9.75;;;5.38;;
50337;SDS011;46221;51.178;5.900;2023-05-07T09:24:37;8.35;;;4.38;;
50337;SDS011;46221;51.178;5.900;2023-05-07T09:27:04;6.18;;;4.20;;
50337;SDS011;46221;51.178;5.900;2023-05-07T09:29:31;5.90;;;3.85;;
50337;SDS011;46221;51.178;5.900;2023-05-07T09:32:07;7.20;;;4.68;;
50337;SDS011;46221;51.178;5.900;2023-05-07T09:34:34;7.25;;;4.72;;
50337;SDS011;46221;51.178;5.900;2023-05-07T09:37:01;8.77;;;4.13;;
50337;SDS011;46221;51.178;5.900;2023-05-07T09:39:44;7.97;;;4.88;;
50337;SDS011;46221;51.178;5.900;2023-05-07T09:42:11;7.03;;;4.40;;
50337;SDS011;46221;51.178;5.900;2023-05-07T09:44:38;8.30;;;4.60;;
50337;SDS011;46221;51.178;5.900;2023-05-07T09:47:05;7.68;;;4.80;;
50337;SDS011;46221;51.178;5.900;2023-05-07T09:49:33;7.82;;;4.97;;
50337;SDS011;46221;51.178;5.900;2023-05-07T09:52:00;11.27;;;5.13;;
50337;SDS011;46221;51.178;5.900;2023-05-07T09:54:27;6.65;;;4.50;;
50337;SDS011;46221;51.178;5.900;2023-05-07T09:56:57;8.95;;;4.80;;
50337;SDS011;46221;51.178;5.900;2023-05-07T09:59:24;10.88;;;4.90;;
50337;SDS011;46221;51.178;5.900;2023-05-07T10:01:56;6.70;;;4.78;;
50337;SDS011;46221;51.178;5.900;2023-05-07T10:04:23;10.02;;;4.50;;
50337;SDS011;46221;51.178;5.900;2023-05-07T10:06:50;6.68;;;4.30;;
50337;SDS011;46221;51.178;5.900;2023-05-07T10:09:17;7.85;;;3.90;;
50337;SDS011;46221;51.178;5.900;2023-05-07T10:11:44;5.82;;;4.07;;
50337;SDS011;46221;51.178;5.900;2023-05-07T10:14:11;7.13;;;4.28;;
50337;SDS011;46221;51.178;5.900;2023-05-07T10:16:37;7.15;;;3.90;;
50337;SDS011;46221;51.178;5.900;2023-05-07T10:19:04;7.38;;;3.92;;
50337;SDS011;46221;51.178;5.900;2023-05-07T10:21:32;5.95;;;4.00;;
50337;SDS011;46221;51.178;5.900;2023-05-07T10:24:01;5.70;;;3.50;;
50337;SDS011;46221;51.178;5.900;2023-05-07T10:26:32;6.28;;;3.55;;
50337;SDS011;46221;51.178;5.900;2023-05-07T10:29:00;6.70;;;3.60;;
50337;SDS011;46221;51.178;5.900;2023-05-07T10:34:14;4.70;;;2.83;;
50337;SDS011;46221;51.178;5.900;2023-05-07T10:36:42;5.95;;;3.13;;
50337;SDS011;46221;51.178;5.900;2023-05-07T10:39:09;4.45;;;2.67;;
50337;SDS011;46221;51.178;5.900;2023-05-07T10:41:36;5.65;;;2.90;;
50337;SDS011;46221;51.178;5.900;2023-05-07T10:44:03;5.57;;;2.95;;
50337;SDS011;46221;51.178;5.900;2023-05-07T10:46:29;6.10;;;3.42;;
50337;SDS011;46221;51.178;5.900;2023-05-07T10:51:27;5.50;;;3.08;;
50337;SDS011;46221;51.178;5.900;2023-05-07T10:56:39;4.87;;;2.70;;
50337;SDS011;46221;51.178;5.900;2023-05-07T11:04:16;4.95;;;2.40;;
50337;SDS011;46221;51.178;5.900;2023-05-07T11:07:08;3.70;;;1.88;;
50337;SDS011;46221;51.178;5.900;2023-05-07T11:12:15;3.65;;;1.90;;
50337;SDS011;46221;51.178;5.900;2023-05-07T11:17:15;3.05;;;2.05;;
50337;SDS011;46221;51.178;5.900;2023-05-07T11:19:51;4.85;;;2.30;;
50337;SDS011;46221;51.178;5.900;2023-05-07T11:22:36;4.55;;;2.13;;
50337;SDS011;46221;51.178;5.900;2023-05-07T11:25:06;3.97;;;2.17;;
50337;SDS011;46221;51.178;5.900;2023-05-07T11:27:32;4.07;;;2.20;;
50337;SDS011;46221;51.178;5.900;2023-05-07T11:29:59;4.72;;;2.25;;
50337;SDS011;46221;51.178;5.900;2023-05-07T11:32:27;4.85;;;2.35;;
50337;SDS011;46221;51.178;5.900;2023-05-07T11:34:57;6.40;;;2.42;;
50337;SDS011;46221;51.178;5.900;2023-05-07T11:37:24;4.57;;;2.17;;
50337;SDS011;46221;51.178;5.900;2023-05-07T11:39:51;5.22;;;2.00;;
50337;SDS011;46221;51.178;5.900;2023-05-07T11:42:34;4.20;;;2.05;;
50337;SDS011;46221;51.178;5.900;2023-05-07T11:45:02;4.63;;;1.88;;
50337;SDS011;46221;51.178;5.900;2023-05-07T11:47:30;5.15;;;2.25;;
50337;SDS011;46221;51.178;5.900;2023-05-07T11:50:01;8.00;;;2.40;;
50337;SDS011;46221;51.178;5.900;2023-05-07T11:52:35;4.43;;;2.10;;
50337;SDS011;46221;51.178;5.900;2023-05-07T11:55:03;5.80;;;2.40;;
50337;SDS011;46221;51.178;5.900;2023-05-07T11:57:32;4.70;;;1.85;;
50337;SDS011;46221;51.178;5.900;2023-05-07T12:00:28;4.00;;;2.08;;
50337;SDS011;46221;51.178;5.900;2023-05-07T12:03:05;4.85;;;2.13;;
50337;SDS011;46221;51.178;5.900;2023-05-07T12:05:38;5.68;;;2.28;;
50337;SDS011;46221;51.178;5.900;2023-05-07T12:08:18;4.38;;;1.80;;
50337;SDS011;46221;51.178;5.900;2023-05-07T12:10:46;4.75;;;2.05;;
50337;SDS011;46221;51.178;5.900;2023-05-07T12:13:21;3.57;;;1.40;;
50337;SDS011;46221;51.178;5.900;2023-05-07T12:15:51;3.85;;;1.77;;
50337;SDS011;46221;51.178;5.900;2023-05-07T12:18:18;4.40;;;1.88;;
50337;SDS011;46221;51.178;5.900;2023-05-07T12:20:44;3.75;;;1.85;;
50337;SDS011;46221;51.178;5.900;2023-05-07T12:23:11;4.40;;;1.90;;
50337;SDS011;46221;51.178;5.900;2023-05-07T12:25:38;4.22;;;1.85;;
50337;SDS011;46221;51.178;5.900;2023-05-07T12:28:05;4.80;;;1.63;;
50337;SDS011;46221;51.178;5.900;2023-05-07T12:30:32;4.28;;;1.80;;
50337;SDS011;46221;51.178;5.900;2023-05-07T12:33:02;3.50;;;1.70;;
50337;SDS011;46221;51.178;5.900;2023-05-07T12:35:29;3.65;;;1.60;;
50337;SDS011;46221;51.178;5.900;2023-05-07T12:37:59;3.75;;;1.63;;
50337;SDS011;46221;51.178;5.900;2023-05-07T12:40:37;4.32;;;1.58;;
50337;SDS011;46221;51.178;5.900;2023-05-07T12:43:04;3.25;;;1.40;;
50337;SDS011;46221;51.178;5.900;2023-05-07T12:45:30;5.18;;;2.05;;
50337;SDS011;46221;51.178;5.900;2023-05-07T12:47:57;4.88;;;1.58;;
50337;SDS011;46221;51.178;5.900;2023-05-07T12:50:30;5.75;;;1.95;;
50337;SDS011;46221;51.178;5.900;2023-05-07T12:52:57;3.47;;;1.70;;
50337;SDS011;46221;51.178;5.900;2023-05-07T12:55:23;3.80;;;1.50;;
50337;SDS011;46221;51.178;5.900;2023-05-07T12:57:49;3.50;;;1.67;;
50337;SDS011;46221;51.178;5.900;2023-05-07T13:00:32;3.97;;;1.60;;
50337;SDS011;46221;51.178;5.900;2023-05-07T13:02:58;6.75;;;1.80;;
50337;SDS011;46221;51.178;5.900;2023-05-07T13:05:27;3.15;;;1.25;;
50337;SDS011;46221;51.178;5.900;2023-05-07T13:07:54;5.97;;;1.80;;
50337;SDS011;46221;51.178;5.900;2023-05-07T13:10:21;3.05;;;1.58;;
50337;SDS011;46221;51.178;5.900;2023-05-07T13:12:47;4.85;;;1.98;;
50337;SDS011;46221;51.178;5.900;2023-05-07T13:15:14;4.40;;;1.55;;
50337;SDS011;46221;51.178;5.900;2023-05-07T13:17:40;5.65;;;2.00;;
50337;SDS011;46221;51.178;5.900;2023-05-07T13:20:06;6.05;;;1.75;;
50337;SDS011;46221;51.178;5.900;2023-05-07T13:22:34;6.95;;;1.90;;
50337;SDS011;46221;51.178;5.900;2023-05-07T13:25:00;4.03;;;1.55;;
50337;SDS011;46221;51.178;5.900;2023-05-07T13:27:27;6.40;;;1.77;;
50337;SDS011;46221;51.178;5.900;2023-05-07T13:29:53;4.07;;;1.70;;
50337;SDS011;46221;51.178;5.900;2023-05-07T13:32:19;4.35;;;1.77;;
50337;SDS011;46221;51.178;5.900;2023-05-07T13:34:46;5.18;;;1.95;;
50337;SDS011;46221;51.178;5.900;2023-05-07T13:37:12;3.40;;;1.40;;
50337;SDS011;46221;51.178;5.900;2023-05-07T13:39:38;4.95;;;1.70;;
50337;SDS011;46221;51.178;5.900;2023-05-07T13:42:05;5.55;;;1.65;;
50337;SDS011;46221;51.178;5.900;2023-05-07T13:44:31;5.30;;;1.65;;
50337;SDS011;46221;51.178;5.900;2023-05-07T13:46:57;5.13;;;1.80;;
50337;SDS011;46221;51.178;5.900;2023-05-07T13:49:24;4.13;;;1.58;;
50337;SDS011;46221;51.178;5.900;2023-05-07T13:51:50;5.50;;;2.15;;
50337;SDS011;46221;51.178;5.900;2023-05-07T13:54:16;5.40;;;1.60;;
50337;SDS011;46221;51.178;5.900;2023-05-07T13:56:43;4.20;;;1.50;;
50337;SDS011;46221;51.178;5.900;2023-05-07T13:59:09;6.28;;;1.77;;
50337;SDS011;46221;51.178;5.900;2023-05-07T14:01:35;4.45;;;2.05;;
50337;SDS011;46221;51.178;5.900;2023-05-07T14:04:02;5.15;;;1.88;;
50337;SDS011;46221;51.178;5.900;2023-05-07T14:06:28;6.30;;;2.00;;
50337;SDS011;46221;51.178;5.900;2023-05-07T14:08:55;4.75;;;1.90;;
50337;SDS011;46221;51.178;5.900;2023-05-07T14:11:27;3.78;;;1.70;;
50337;SDS011;46221;51.178;5.900;2023-05-07T14:16:57;4.80;;;1.80;;
50337;SDS011;46221;51.178;5.900;2023-05-07T14:19:31;7.35;;;2.20;;
50337;SDS011;46221;51.178;5.900;2023-05-07T14:21:57;4.70;;;1.90;;
50337;SDS011;46221;51.178;5.900;2023-05-07T14:24:24;5.95;;;1.88;;
50337;SDS011;46221;51.178;5.900;2023-05-07T14:27:03;4.20;;;1.70;;
50337;SDS011;46221;51.178;5.900;2023-05-07T14:29:32;5.43;;;1.90;;
50337;SDS011;46221;51.178;5.900;2023-05-07T14:31:59;5.32;;;2.03;;
50337;SDS011;46221;51.178;5.900;2023-05-07T14:34:25;4.53;;;1.70;;
50337;SDS011;46221;51.178;5.900;2023-05-07T14:36:51;3.75;;;1.63;;
50337;SDS011;46221;51.178;5.900;2023-05-07T14:39:18;4.93;;;2.03;;
50337;SDS011;46221;51.178;5.900;2023-05-07T14:41:56;5.15;;;1.92;;
50337;SDS011;46221;51.178;5.900;2023-05-07T14:44:23;4.30;;;1.48;;
50337;SDS011;46221;51.178;5.900;2023-05-07T14:46:53;4.72;;;1.90;;
50337;SDS011;46221;51.178;5.900;2023-05-07T14:49:21;4.05;;;1.90;;
50337;SDS011;46221;51.178;5.900;2023-05-07T14:51:57;4.45;;;1.85;;
50337;SDS011;46221;51.178;5.900;2023-05-07T14:54:39;5.40;;;1.77;;
50337;SDS011;46221;51.178;5.900;2023-05-07T14:57:10;4.50;;;1.63;;
50337;SDS011;46221;51.178;5.900;2023-05-07T15:02:52;4.75;;;1.75;;
50337;SDS011;46221;51.178;5.900;2023-05-07T15:05:19;5.43;;;1.60;;
50337;SDS011;46221;51.178;5.900;2023-05-07T15:07:46;3.60;;;1.58;;
50337;SDS011;46221;51.178;5.900;2023-05-07T15:10:12;4.00;;;1.40;;
50337;SDS011;46221;51.178;5.900;2023-05-07T15:12:42;6.43;;;1.98;;
50337;SDS011;46221;51.178;5.900;2023-05-07T15:15:08;4.88;;;1.80;;
50337;SDS011;46221;51.178;5.900;2023-05-07T15:17:35;3.45;;;1.73;;